Time;durP1;ratioP1;P1;durP2;ratioP2;P2;SDS_P1;SDS_P2;PMS_P1;PMS_P2;Temp;Humidity;BMP_temperature;BMP_pressure;BME280_temperature;BME280_humidity;BME280_pressure;Samples;Min_cycle;Max_cycle;Signal;HPM_P1;HPM_P2
2022/01/28 00:00:40;;;;;;;0.10;0.10;;;;;;;8.56;59.28;103139.06;5103975;28;19969;-85
2022/01/28 00:03:08;;;;;;;0.10;0.10;;;;;;;8.56;59.33;103149.63;5105830;28;20020;-85
2022/01/28 00:05:36;;;;;;;2.60;2.30;;;;;;;8.45;59.02;103144.06;5104736;28;20060;-85
2022/01/28 00:08:04;;;;;;;0.10;0.10;;;;;;;8.57;58.84;103159.34;5101428;28;20024;-85
2022/01/28 00:10:32;;;;;;;0.10;0.10;;;;;;;8.54;58.78;103157.53;5105576;28;20028;-86
2022/01/28 00:38:08;;;;;;;0.10;0.10;;;;;;;8.55;59.42;103169.00;5100117;28;20062;-86
2022/01/28 00:40:35;;;;;;;0.10;0.10;;;;;;;8.59;58.55;103165.59;5108483;28;20051;-85
2022/01/28 00:43:03;;;;;;;0.10;0.10;;;;;;;8.60;58.70;103188.53;5093658;28;20043;-85
2022/01/28 00:45:29;;;;;;;0.10;0.10;;;;;;;8.62;59.44;103188.56;5105410;28;20038;-85
2022/01/28 00:47:56;;;;;;;0.10;0.10;;;;;;;8.64;58.77;103181.56;5106078;28;20031;-86
2022/01/28 00:50:22;;;;;;;0.10;0.10;;;;;;;8.69;59.25;103183.47;5107297;28;20059;-85
2022/01/28 00:52:49;;;;;;;0.75;0.75;;;;;;;8.67;59.33;103194.84;5100773;28;20031;-85
2022/01/28 00:55:15;;;;;;;0.08;0.08;;;;;;;8.66;59.45;103193.06;5102747;28;20032;-85
2022/01/28 00:57:41;;;;;;;0.10;0.10;;;;;;;8.65;59.65;103213.31;5104666;28;20562;-85
2022/01/28 01:00:09;;;;;;;0.10;0.10;;;;;;;8.70;59.22;103206.41;5107669;28;20085;-85
2022/01/28 01:02:36;;;;;;;0.10;0.10;;;;;;;8.73;59.09;103205.56;5106788;28;21348;-85
2022/01/28 01:05:02;;;;;;;0.00;0.00;;;;;;;8.76;59.56;103210.03;5108368;28;20032;-85
2022/01/28 01:07:30;;;;;;;0.10;0.10;;;;;;;8.75;59.19;103209.16;5107916;28;20028;-85
2022/01/28 01:10:08;;;;;;;0.10;0.10;;;;;;;8.78;59.82;103214.50;5108150;28;20034;-84
2022/01/28 01:12:46;;;;;;;0.10;0.10;;;;;;;8.82;59.75;103204.91;5090936;28;20035;-85
2022/01/28 01:15:22;;;;;;;0.10;0.10;;;;;;;8.83;59.41;103204.94;5104149;28;20035;-85
2022/01/28 01:18:06;;;;;;;0.05;0.05;;;;;;;8.85;59.77;103202.38;5099405;28;20040;-85
2022/01/28 01:20:56;;;;;;;0.10;0.10;;;;;;;8.78;59.92;103208.34;5106082;28;20031;-85
2022/01/28 01:23:26;;;;;;;0.10;0.10;;;;;;;8.84;59.56;103203.22;5103787;28;20028;-85
2022/01/28 01:26:04;;;;;;;0.10;0.10;;;;;;;8.85;59.23;103207.66;5106881;28;20031;-85
2022/01/28 01:28:34;;;;;;;0.00;0.00;;;;;;;8.79;59.52;103208.38;5099249;28;20483;-85
2022/01/28 01:31:03;;;;;;;0.10;0.10;;;;;;;8.79;59.30;103223.34;5091607;28;20035;-85
2022/01/28 01:33:33;;;;;;;0.08;0.08;;;;;;;8.79;59.23;103220.72;5094336;28;20020;-85
2022/01/28 01:36:00;;;;;;;0.10;0.10;;;;;;;8.84;59.08;103229.66;5093605;28;20028;-85
2022/01/28 01:38:31;;;;;;;0.10;0.10;;;;;;;8.84;58.90;103229.66;5090130;28;20021;-85
2022/01/28 01:41:00;;;;;;;0.10;0.10;;;;;;;8.81;58.81;103232.19;5093443;28;20032;-85
2022/01/28 01:52:09;;;;;;;0.10;0.10;;;;;;;8.82;58.52;103226.06;5155807;27;20039;-86
2022/01/28 01:54:43;;;;;;;0.10;0.10;;;;;;;8.88;58.67;103229.78;5152007;27;20031;-86
2022/01/28 01:57:12;;;;;;;1.08;0.75;;;;;;;8.80;58.25;103238.34;5156916;27;20042;-85
2022/01/28 01:59:40;;;;;;;0.00;0.00;;;;;;;8.83;58.46;103241.97;5165093;27;20025;-86
2022/01/28 02:05:00;;;;;;;0.10;0.10;;;;;;;8.75;58.82;103251.47;5124380;27;20051;-87
2022/01/28 02:07:27;;;;;;;0.30;0.30;;;;;;;8.68;58.90;103262.72;5128313;28;20080;-86
2022/01/28 02:09:53;;;;;;;0.10;0.10;;;;;;;8.69;58.90;103246.88;5127544;28;20478;-87
2022/01/28 02:12:20;;;;;;;1.55;1.23;;;;;;;8.71;59.15;103249.56;5128740;28;20042;-88
2022/01/28 02:14:47;;;;;;;0.10;0.10;;;;;;;8.69;59.35;103249.53;5108303;28;20088;-86
2022/01/28 02:17:13;;;;;;;0.10;0.10;;;;;;;8.69;59.53;103254.81;5108254;28;20437;-88
2022/01/28 02:19:40;;;;;;;0.10;0.10;;;;;;;8.66;59.20;103256.47;5109297;28;20028;-89
2022/01/28 02:22:06;;;;;;;0.10;0.10;;;;;;;8.64;60.10;103247.63;5106511;28;20082;-88
2022/01/28 02:24:40;;;;;;;0.10;0.10;;;;;;;8.65;59.67;103245.03;5107735;28;20027;-88
2022/01/28 02:27:08;;;;;;;0.10;0.10;;;;;;;8.58;60.91;103243.06;5106397;28;20036;-87
2022/01/28 02:29:35;;;;;;;0.10;0.10;;;;;;;8.61;60.94;103248.44;5108461;28;20028;-89
2022/01/28 02:32:06;;;;;;;0.10;0.10;;;;;;;8.67;61.35;103255.63;5108705;28;20028;-89
2022/01/28 02:34:35;;;;;;;0.10;0.10;;;;;;;8.61;61.61;103247.53;5107049;28;20316;-89
2022/01/28 02:37:02;;;;;;;0.08;0.08;;;;;;;8.60;62.99;103248.38;5107497;28;20039;-88
2022/01/28 02:39:28;;;;;;;0.00;0.00;;;;;;;8.59;62.45;103250.16;5106723;28;20124;-88
2022/01/28 02:42:03;;;;;;;0.10;0.10;;;;;;;8.61;62.84;103259.03;5108149;28;20034;-87
2022/01/28 02:44:49;;;;;;;0.10;0.10;;;;;;;8.57;62.80;103251.84;5106991;28;20394;-87
2022/01/28 02:47:27;;;;;;;0.10;0.10;;;;;;;8.53;63.31;103271.13;5107496;28;20077;-87
2022/01/28 02:49:54;;;;;;;0.10;0.10;;;;;;;8.57;63.18;103260.69;5108122;28;20496;-84
2022/01/28 02:52:29;;;;;;;0.10;0.10;;;;;;;8.57;64.11;103267.69;5105327;28;20036;-90
2022/01/28 02:54:55;;;;;;;0.10;0.10;;;;;;;8.57;63.32;103262.41;5108121;28;20110;-89
2022/01/28 02:57:25;;;;;;;0.10;0.10;;;;;;;8.58;64.13;103264.22;5106463;28;20066;-90
2022/01/28 02:59:51;;;;;;;0.10;0.10;;;;;;;8.55;63.30;103272.06;5095010;28;20186;-87
2022/01/28 03:02:18;;;;;;;0.10;0.10;;;;;;;8.47;64.59;103278.88;5092764;28;20024;-89
2022/01/28 03:07:29;;;;;;;0.10;0.10;;;;;;;8.52;64.05;103285.19;5084724;27;20844;-87
2022/01/28 03:10:26;;;;;;;0.10;0.10;;;;;;;8.61;63.73;103281.91;5068542;28;20068;-88
2022/01/28 03:15:27;;;;;;;0.10;0.10;;;;;;;8.54;63.42;103294.94;5043432;28;20038;-87
2022/01/28 03:18:08;;;;;;;0.10;0.10;;;;;;;8.48;63.29;103299.16;5041297;28;20440;-87
2022/01/28 03:20:40;;;;;;;0.05;0.05;;;;;;;8.42;64.60;103306.03;5041608;28;20107;-87
2022/01/28 03:23:07;;;;;;;0.10;0.10;;;;;;;8.42;64.88;103302.47;5040777;28;20065;-88
2022/01/28 03:25:36;;;;;;;0.10;0.10;;;;;;;8.43;65.00;103299.88;5042034;28;20445;-84
2022/01/28 03:28:02;;;;;;;0.10;0.10;;;;;;;8.41;64.77;103292.75;5035112;28;20022;-87
2022/01/28 03:30:28;;;;;;;0.10;0.10;;;;;;;8.45;64.66;103297.31;5042776;28;20039;-86
2022/01/28 03:32:55;;;;;;;1.17;1.17;;;;;;;8.37;63.93;103298.81;5058199;22;20050;-86
2022/01/28 03:35:21;;;;;;;0.20;0.20;;;;;;;8.26;64.90;103303.78;5046352;28;20037;-85
2022/01/28 03:37:49;;;;;;;0.00;0.00;;;;;;;8.31;64.42;103304.84;5047043;28;20034;-85
2022/01/28 03:40:19;;;;;;;0.10;0.10;;;;;;;8.31;63.81;103306.56;5048793;28;20065;-84
2022/01/28 03:42:45;;;;;;;0.10;0.10;;;;;;;8.26;64.43;103309.06;5038931;28;20026;-85
2022/01/28 03:45:12;;;;;;;0.10;0.10;;;;;;;8.24;63.94;103301.09;5036619;28;20030;-85
2022/01/28 03:47:38;;;;;;;0.10;0.10;;;;;;;8.22;64.06;103301.91;5042729;28;20032;-85
2022/01/28 03:50:04;;;;;;;0.10;0.10;;;;;;;8.20;64.50;103308.88;5044207;28;20029;-85
2022/01/28 03:52:31;;;;;;;0.10;0.10;;;;;;;8.22;64.05;103307.19;5032175;28;20524;-85
2022/01/28 03:54:57;;;;;;;0.10;0.10;;;;;;;8.17;64.27;103311.44;5036993;28;20036;-85
2022/01/28 03:57:23;;;;;;;0.10;0.10;;;;;;;8.05;63.68;103323.44;5034163;28;20474;-85
2022/01/28 03:59:49;;;;;;;0.10;0.10;;;;;;;8.12;63.54;103318.34;5036184;28;20029;-85
2022/01/28 04:02:20;;;;;;;0.00;0.00;;;;;;;8.09;63.84;103321.78;5038314;28;20040;-85
2022/01/28 04:06:07;;;;;;;0.10;0.10;;;;;;;8.05;63.87;103328.72;5032966;28;20022;-85
2022/01/28 04:13:10;;;;;;;0.10;0.10;;;;;;;8.07;62.16;103336.69;5043675;28;20098;-85
2022/01/28 04:15:50;;;;;;;0.10;0.10;;;;;;;8.02;62.42;103336.53;5045199;28;20383;-84
2022/01/28 04:18:17;;;;;;;0.10;0.10;;;;;;;8.05;62.44;103333.06;5030727;28;20384;-85
2022/01/28 04:20:43;;;;;;;0.10;0.10;;;;;;;8.02;61.80;103339.16;5028178;28;20065;-85
2022/01/28 04:23:09;;;;;;;0.10;0.10;;;;;;;7.97;61.77;103348.69;5026989;28;20034;-85
2022/01/28 04:25:35;;;;;;;0.10;0.10;;;;;;;8.01;61.63;103350.59;5022104;28;20095;-85
2022/01/28 04:28:01;;;;;;;0.10;0.10;;;;;;;8.03;61.14;103348.00;5030360;28;20389;-85
2022/01/28 04:30:27;;;;;;;0.10;0.10;;;;;;;8.02;61.15;103360.28;5026916;28;20091;-85
2022/01/28 04:32:53;;;;;;;0.10;0.10;;;;;;;8.02;60.60;103357.66;5027216;28;20413;-85
2022/01/28 04:35:20;;;;;;;0.10;0.10;;;;;;;7.94;61.11;103360.06;5019139;28;20051;-85
2022/01/28 04:40:38;;;;;;;0.10;0.10;;;;;;;7.99;60.77;103364.56;5020348;28;20046;-85
2022/01/28 04:45:55;;;;;;;0.10;0.10;;;;;;;7.97;60.87;103364.53;5071061;27;20470;-85
2022/01/28 04:48:36;;;;;;;0.10;0.10;;;;;;;7.91;60.82;103369.63;5044129;28;20112;-85
2022/01/28 04:51:15;;;;;;;0.10;0.10;;;;;;;7.84;60.38;103378.19;5044149;28;20092;-85
2022/01/28 04:53:58;;;;;;;0.10;0.10;;;;;;;7.82;60.76;103379.91;5039049;28;20478;-85
2022/01/28 04:56:37;;;;;;;0.28;0.28;;;;;;;7.76;60.95;103370.94;5022510;28;20072;-84
2022/01/28 04:59:27;;;;;;;0.10;0.10;;;;;;;7.73;60.93;103376.09;5027465;28;20037;-85
2022/01/28 05:02:12;;;;;;;0.05;0.05;;;;;;;7.77;60.44;103375.34;5027695;28;20111;-85
2022/01/28 05:04:51;;;;;;;0.03;0.03;;;;;;;7.86;60.46;103373.84;5023665;28;20056;-85
2022/01/28 05:13:15;;;;;;;0.10;0.10;;;;;;;7.69;61.17;103376.84;5045795;28;20401;-85
2022/01/28 05:27:02;;;;;;;0.10;0.10;;;;;;;7.59;60.97;103393.25;5043283;28;20531;-84
2022/01/28 05:29:29;;;;;;;0.10;0.10;;;;;;;7.65;60.69;103388.16;5040616;28;20036;-85
2022/01/28 05:31:55;;;;;;;0.00;0.00;;;;;;;7.62;60.93;103393.31;5047009;28;20033;-85
2022/01/28 05:34:25;;;;;;;0.10;0.10;;;;;;;7.62;61.44;103388.03;5047533;28;20033;-85
2022/01/28 05:36:52;;;;;;;0.10;0.10;;;;;;;7.58;61.10;103388.81;5044238;28;20101;-85
2022/01/28 05:39:19;;;;;;;0.10;0.10;;;;;;;7.57;60.92;103394.91;5040908;28;20044;-84
2022/01/28 05:41:45;;;;;;;0.10;0.10;;;;;;;7.55;60.82;103402.78;5046780;28;20080;-85
2022/01/28 05:44:11;;;;;;;0.10;0.10;;;;;;;7.53;61.17;103409.75;5045490;28;20026;-85
2022/01/28 05:46:38;;;;;;;0.10;0.10;;;;;;;7.56;61.29;103408.94;5036969;28;20124;-84
2022/01/28 05:49:05;;;;;;;0.10;0.10;;;;;;;7.58;61.04;103409.91;5048153;28;20469;-85
2022/01/28 05:51:31;;;;;;;0.10;0.10;;;;;;;7.59;61.24;103414.34;5048861;28;20033;-84
2022/01/28 05:53:58;;;;;;;0.10;0.10;;;;;;;7.54;60.98;103416.81;5048008;28;20049;-85
2022/01/28 05:56:25;;;;;;;0.10;0.10;;;;;;;7.48;60.78;103420.97;5049230;28;20025;-85
2022/01/28 05:58:52;;;;;;;0.10;0.10;;;;;;;7.40;61.33;103421.63;5044111;28;20052;-85
2022/01/28 06:01:19;;;;;;;0.10;0.10;;;;;;;7.36;61.59;103427.63;5044858;28;20040;-85
2022/01/28 06:03:47;;;;;;;0.10;0.10;;;;;;;7.35;61.41;103436.41;5038639;28;20037;-85
2022/01/28 06:06:20;;;;;;;0.10;0.10;;;;;;;7.31;61.21;103433.59;5032949;28;20117;-85
2022/01/28 06:08:49;;;;;;;0.10;0.10;;;;;;;7.28;61.22;103444.94;5044195;28;20029;-85
2022/01/28 06:11:16;;;;;;;0.10;0.10;;;;;;;7.20;61.33;103451.66;5049011;28;20515;-84
2022/01/28 06:13:42;;;;;;;0.10;0.10;;;;;;;7.16;61.86;103457.69;5048487;28;20082;-85
2022/01/28 06:16:10;;;;;;;0.10;0.10;;;;;;;7.18;61.92;103446.34;5047519;28;20060;-85
2022/01/28 06:18:37;;;;;;;0.20;0.20;;;;;;;7.22;62.00;103444.72;5048849;28;20098;-85
2022/01/28 06:21:04;;;;;;;0.10;0.10;;;;;;;7.27;62.47;103443.13;5048860;28;20034;-85
2022/01/28 06:23:31;;;;;;;0.10;0.10;;;;;;;7.29;62.11;103447.63;5048705;28;20052;-85
2022/01/28 06:25:57;;;;;;;0.00;0.00;;;;;;;7.26;61.97;103465.06;5034246;28;20059;-85
2022/01/28 06:28:23;;;;;;;0.10;0.10;;;;;;;7.23;62.29;103459.69;5038156;28;20544;-84
2022/01/28 06:30:49;;;;;;;0.10;0.10;;;;;;;7.22;62.46;103455.25;5027507;28;20029;-84
2022/01/28 06:33:15;;;;;;;0.10;0.10;;;;;;;7.21;62.24;103464.00;5033577;28;20037;-84
2022/01/28 06:35:43;;;;;;;0.10;0.10;;;;;;;7.20;62.32;103470.13;5018901;28;20038;-85
2022/01/28 06:38:10;;;;;;;0.10;0.10;;;;;;;7.17;62.17;103472.66;5028037;28;20060;-86
2022/01/28 06:40:36;;;;;;;0.10;0.10;;;;;;;7.13;61.94;103476.91;5027654;28;20405;-86
2022/01/28 06:43:02;;;;;;;0.10;0.10;;;;;;;7.08;62.31;103489.91;5030699;28;20201;-85
2022/01/28 06:45:29;;;;;;;0.00;0.00;;;;;;;7.05;62.31;103495.09;5030870;28;20050;-85
2022/01/28 06:47:55;;;;;;;0.10;0.10;;;;;;;7.00;62.32;103495.75;5024869;28;20041;-85
2022/01/28 06:50:21;;;;;;;0.10;0.10;;;;;;;6.96;62.35;103497.38;5033908;28;20048;-85
2022/01/28 06:52:47;;;;;;;0.10;0.10;;;;;;;6.94;62.79;103502.59;5026948;28;20056;-84
2022/01/28 06:55:16;;;;;;;0.10;0.10;;;;;;;6.89;62.60;103516.41;5024740;28;20435;-85
2022/01/28 06:57:43;;;;;;;0.10;0.10;;;;;;;6.84;62.22;103512.72;5027021;28;20036;-85
2022/01/28 07:00:10;;;;;;;0.10;0.10;;;;;;;6.76;62.52;103512.41;5031147;28;20030;-84
2022/01/28 07:02:37;;;;;;;0.10;0.10;;;;;;;6.70;62.55;103507.78;5032784;28;20033;-85
2022/01/28 07:05:04;;;;;;;0.30;0.30;;;;;;;6.63;62.27;103511.06;5031253;28;20029;-84
2022/01/28 07:07:31;;;;;;;0.10;0.10;;;;;;;6.53;62.44;103514.13;5025700;28;20116;-84
2022/01/28 07:09:57;;;;;;;0.10;0.10;;;;;;;6.43;62.38;103519.06;5030378;28;20022;-85
2022/01/28 07:12:23;;;;;;;0.10;0.10;;;;;;;6.36;62.47;103506.47;5027241;28;20068;-85
2022/01/28 07:14:50;;;;;;;0.10;0.10;;;;;;;6.28;62.54;103503.53;5029819;28;20041;-85
2022/01/28 07:17:16;;;;;;;0.10;0.10;;;;;;;6.21;62.62;103514.63;5027615;28;20128;-85
2022/01/28 07:19:43;;;;;;;0.10;0.10;;;;;;;6.11;62.56;103521.25;5026324;28;20498;-85
2022/01/28 07:22:09;;;;;;;0.10;0.10;;;;;;;6.04;62.84;103532.34;5034675;28;20033;-85
2022/01/28 07:24:36;;;;;;;0.10;0.10;;;;;;;5.97;63.02;103528.53;5033985;28;20445;-86
2022/01/28 07:27:02;;;;;;;0.10;0.10;;;;;;;5.94;62.93;103548.56;5022960;28;20409;-86
2022/01/28 07:29:31;;;;;;;0.10;0.10;;;;;;;5.87;63.32;103543.88;5030215;28;20068;-85
2022/01/28 07:31:57;;;;;;;0.10;0.10;;;;;;;5.81;63.57;103549.78;5029139;28;20477;-85
2022/01/28 07:34:24;;;;;;;0.10;0.10;;;;;;;5.74;63.30;103551.22;5033446;28;20030;-86
2022/01/28 07:36:50;;;;;;;0.10;0.10;;;;;;;5.67;63.62;103552.69;5033787;28;20490;-86
2022/01/28 07:39:16;;;;;;;0.55;0.55;;;;;;;5.64;63.67;103546.41;5029446;28;20060;-86
2022/01/28 07:41:43;;;;;;;0.10;0.10;;;;;;;5.60;63.77;103558.50;5024112;28;20112;-86
2022/01/28 07:44:09;;;;;;;0.15;0.15;;;;;;;5.56;63.61;103564.47;5025167;28;20446;-84
2022/01/28 07:46:36;;;;;;;0.10;0.10;;;;;;;5.54;63.90;103562.63;5026115;28;20065;-85
2022/01/28 07:49:03;;;;;;;0.10;0.10;;;;;;;5.53;64.22;103568.69;5029928;28;20496;-85
2022/01/28 07:51:29;;;;;;;0.10;0.10;;;;;;;5.51;64.16;103580.03;5032648;28;20044;-85
2022/01/28 07:53:55;;;;;;;0.10;0.10;;;;;;;5.48;64.04;103576.38;5032249;28;20022;-85
2022/01/28 07:56:23;;;;;;;0.10;0.10;;;;;;;5.49;64.29;103580.81;5028872;28;20037;-85
2022/01/28 07:58:50;;;;;;;0.10;0.10;;;;;;;5.51;64.57;103582.66;5030929;28;20029;-84
2022/01/28 08:01:16;;;;;;;0.10;0.10;;;;;;;5.52;65.54;103586.22;5030547;28;20029;-85
2022/01/28 08:03:42;;;;;;;0.10;0.10;;;;;;;5.56;65.46;103589.84;5030542;28;20029;-86
2022/01/28 08:06:08;;;;;;;0.10;0.10;;;;;;;5.63;65.12;103594.56;5031926;28;20049;-87
2022/01/28 08:08:34;;;;;;;0.10;0.10;;;;;;;5.66;65.04;103594.72;5030266;28;20469;-85
2022/01/28 08:11:00;;;;;;;0.10;0.10;;;;;;;5.69;64.62;103592.22;5032709;28;20029;-84
2022/01/28 08:13:26;;;;;;;0.10;0.10;;;;;;;5.74;65.33;103593.31;5033069;28;20080;-85
2022/01/28 08:15:53;;;;;;;0.20;0.20;;;;;;;5.81;65.11;103594.50;5032614;28;20033;-85
2022/01/28 08:18:19;;;;;;;0.10;0.10;;;;;;;5.86;65.21;103592.06;5032084;28;20041;-85
2022/01/28 08:20:46;;;;;;;0.10;0.10;;;;;;;5.91;65.06;103596.69;5028911;28;20099;-85
2022/01/28 08:23:13;;;;;;;0.10;0.10;;;;;;;5.95;65.27;103597.75;5030514;28;20033;-86
2022/01/28 08:25:39;;;;;;;0.10;0.10;;;;;;;5.99;65.65;103590.09;5031980;28;20045;-85
2022/01/28 08:28:06;;;;;;;0.17;0.17;;;;;;;6.07;65.63;103602.66;5030606;28;20041;-85
2022/01/28 08:30:35;;;;;;;0.10;0.10;;;;;;;6.13;65.52;103602.91;5032100;28;20040;-85
2022/01/28 08:33:01;;;;;;;0.10;0.10;;;;;;;6.19;65.18;103610.19;5028168;28;20026;-85
2022/01/28 08:35:33;;;;;;;0.10;0.10;;;;;;;6.22;65.46;103608.59;5027196;28;20041;-86
2022/01/28 08:38:00;;;;;;;0.10;0.10;;;;;;;6.26;64.79;103604.38;5030459;28;20026;-85
2022/01/28 08:40:28;;;;;;;0.10;0.10;;;;;;;6.33;65.45;103614.31;5031800;28;20064;-84
2022/01/28 08:43:01;;;;;;;0.10;0.10;;;;;;;6.40;65.29;103613.72;5029914;28;20109;-85
2022/01/28 08:45:28;;;;;;;0.50;0.50;;;;;;;6.43;64.74;103608.59;5031700;28;20040;-84
2022/01/28 08:47:54;;;;;;;0.10;0.10;;;;;;;6.47;64.89;103615.78;5030798;28;20025;-85
2022/01/28 08:50:20;;;;;;;2.90;0.85;;;;;;;6.55;64.48;103613.47;5021118;28;20021;-86
2022/01/28 08:52:47;;;;;;;0.10;0.10;;;;;;;6.57;65.55;103618.81;5018817;28;20026;-86
2022/01/28 08:55:14;;;;;;;0.10;0.10;;;;;;;6.64;65.27;103613.84;5019155;28;20037;-86
2022/01/28 08:57:43;;;;;;;0.10;0.10;;;;;;;6.75;64.53;103621.28;5027991;28;20026;-87
2022/01/28 09:00:12;;;;;;;0.10;0.10;;;;;;;6.81;65.09;103621.53;5030307;28;20033;-85
2022/01/28 09:02:40;;;;;;;0.10;0.10;;;;;;;6.88;65.03;103617.41;5026227;28;20073;-86
2022/01/28 09:05:06;;;;;;;0.85;0.85;;;;;;;6.93;64.42;103631.69;5029728;28;20029;-88
2022/01/28 09:07:32;;;;;;;0.20;0.20;;;;;;;6.99;64.92;103621.41;5027958;28;20045;-85
2022/01/28 09:10:04;;;;;;;0.10;0.10;;;;;;;7.10;64.53;103625.34;5031625;28;20115;-85
2022/01/28 09:12:38;;;;;;;0.10;0.10;;;;;;;7.13;64.82;103625.44;5031504;28;20057;-85
2022/01/28 09:15:05;;;;;;;0.10;0.10;;;;;;;7.24;64.66;103628.53;5031829;28;20060;-85
2022/01/28 09:17:31;;;;;;;0.10;0.10;;;;;;;7.30;64.70;103630.47;5033214;28;20034;-84
2022/01/28 09:19:58;;;;;;;0.10;0.10;;;;;;;7.38;65.04;103642.22;5031120;28;20029;-84
2022/01/28 09:22:25;;;;;;;0.10;0.10;;;;;;;7.47;64.03;103643.44;5032828;28;20477;-85
2022/01/28 09:24:52;;;;;;;0.10;0.10;;;;;;;7.56;64.88;103646.41;5032933;28;20042;-85
2022/01/28 09:27:18;;;;;;;0.15;0.15;;;;;;;7.70;64.15;103645.19;5032952;28;20473;-85
2022/01/28 09:29:45;;;;;;;0.10;0.10;;;;;;;7.78;64.28;103649.00;5032241;28;20040;-83
2022/01/28 09:32:11;;;;;;;0.00;0.00;;;;;;;7.87;64.05;103655.47;5025461;28;20064;-84
2022/01/28 09:34:37;;;;;;;0.10;0.10;;;;;;;7.99;64.08;103648.00;5028017;28;20061;-85
2022/01/28 09:37:03;;;;;;;0.10;0.10;;;;;;;8.12;63.98;103645.78;5022882;28;20524;-86
2022/01/28 09:39:32;;;;;;;0.10;0.10;;;;;;;8.24;63.47;103644.47;5031172;28;20038;-81
2022/01/28 09:42:02;;;;;;;1.02;0.98;;;;;;;8.37;63.82;103643.16;5027198;28;20456;-83
2022/01/28 09:44:31;;;;;;;0.08;0.08;;;;;;;8.51;63.36;103633.09;5029387;28;20508;-85
2022/01/28 09:46:59;;;;;;;0.30;0.30;;;;;;;8.60;63.45;103621.94;5032232;28;20037;-84
2022/01/28 09:49:27;;;;;;;0.05;0.05;;;;;;;8.69;62.75;103638.06;5032555;28;20072;-84
2022/01/28 09:51:53;;;;;;;0.10;0.10;;;;;;;8.80;63.30;103643.72;5032424;28;20026;-84
2022/01/28 09:54:20;;;;;;;0.20;0.20;;;;;;;8.88;62.51;103638.69;5032169;28;20491;-84
2022/01/28 09:56:46;;;;;;;0.10;0.10;;;;;;;8.99;62.46;103644.31;5032400;28;20033;-84
2022/01/28 09:59:12;;;;;;;0.10;0.10;;;;;;;9.12;61.96;103637.66;5032611;28;20039;-85
2022/01/28 10:01:55;;;;;;;0.00;0.00;;;;;;;9.27;61.54;103632.84;5032619;28;20061;-85
2022/01/28 10:04:22;;;;;;;0.10;0.10;;;;;;;9.27;61.56;103627.56;5034778;28;20026;-86
2022/01/28 10:06:49;;;;;;;0.10;0.10;;;;;;;9.41;61.83;103630.63;5036131;28;20090;-86
2022/01/28 10:09:19;;;;;;;0.05;0.05;;;;;;;9.52;61.81;103625.63;5036179;28;20484;-85
2022/01/28 10:11:49;;;;;;;0.30;0.30;;;;;;;9.61;61.91;103627.63;5036574;28;20038;-85
2022/01/28 10:14:19;;;;;;;0.20;0.20;;;;;;;9.67;61.17;103643.69;5036093;28;20364;-85
2022/01/28 10:17:02;;;;;;;0.10;0.10;;;;;;;9.84;60.89;103636.22;5035903;28;20069;-85
2022/01/28 10:19:40;;;;;;;0.10;0.10;;;;;;;9.91;60.80;103642.63;5036215;28;20029;-85
2022/01/28 10:22:21;;;;;;;0.20;0.20;;;;;;;10.03;60.70;103649.16;5036247;28;20346;-85
2022/01/28 10:24:48;;;;;;;0.10;0.10;;;;;;;10.04;60.96;103650.94;5036138;28;20025;-84
2022/01/28 10:27:16;;;;;;;0.10;0.10;;;;;;;10.12;60.42;103647.56;5035704;28;20037;-85
2022/01/28 10:29:43;;;;;;;0.10;0.10;;;;;;;10.21;60.17;103647.84;5036348;28;20029;-86
2022/01/28 10:32:12;;;;;;;0.10;0.10;;;;;;;10.27;60.13;103645.34;5036051;28;20548;-86
2022/01/28 10:34:42;;;;;;;0.00;0.00;;;;;;;10.35;59.28;103645.53;5035901;28;20384;-86
2022/01/28 10:40:01;;;;;;;0.00;0.00;;;;;;;10.36;57.91;103650.91;5079785;27;20413;-85
2022/01/28 10:42:51;;;;;;;0.05;0.05;;;;;;;10.54;58.42;103657.53;5070415;28;20074;-85
2022/01/28 10:45:21;;;;;;;0.10;0.10;;;;;;;10.54;58.13;103643.41;5051225;28;20029;-85
2022/01/28 10:47:49;;;;;;;0.08;0.08;;;;;;;10.58;58.29;103632.00;5051297;28;20067;-85
2022/01/28 10:53:33;;;;;;;0.10;0.10;;;;;;;10.66;57.08;103631.34;5112204;27;20405;-84
2022/01/28 10:56:00;;;;;;;0.10;0.10;;;;;;;10.80;57.90;103633.44;5102310;28;20032;-86
2022/01/28 10:58:28;;;;;;;0.10;0.10;;;;;;;10.84;57.38;103628.25;5093753;28;20028;-86
2022/01/28 11:00:57;;;;;;;0.10;0.10;;;;;;;10.94;56.26;103626.72;5095741;28;20046;-84
2022/01/28 11:03:26;;;;;;;0.10;0.10;;;;;;;11.03;56.26;103622.47;5086921;28;20093;-84
2022/01/28 11:05:57;;;;;;;0.10;0.10;;;;;;;11.13;56.49;103621.81;5089965;28;20037;-83
2022/01/28 11:08:25;;;;;;;0.10;0.10;;;;;;;11.20;55.37;103613.13;5083863;28;20045;-82
2022/01/28 11:10:52;;;;;;;0.10;0.10;;;;;;;11.31;56.77;103618.66;5078712;28;20062;-84
2022/01/28 11:13:18;;;;;;;0.10;0.10;;;;;;;11.37;56.12;103620.56;5095536;28;20300;-83
2022/01/28 11:15:48;;;;;;;0.10;0.10;;;;;;;11.47;54.62;103617.22;5083531;28;20035;-82
2022/01/28 11:18:16;;;;;;;0.10;0.10;;;;;;;11.47;55.29;103617.22;5081135;28;20033;-86
2022/01/28 11:20:49;;;;;;;0.10;0.10;;;;;;;11.54;53.93;103619.16;5079936;28;20028;-84
2022/01/28 11:23:40;;;;;;;0.10;0.10;;;;;;;11.68;54.70;103616.78;5084133;28;20074;-84
2022/01/28 11:26:31;;;;;;;0.10;0.10;;;;;;;11.81;53.74;103596.66;5080775;28;20079;-85
2022/01/28 11:29:02;;;;;;;0.00;0.00;;;;;;;11.70;53.61;103584.94;5090612;28;20073;-85
2022/01/28 11:39:50;;;;;;;0.10;0.10;;;;;;;12.15;52.42;103581.38;5045326;28;20782;-84
2022/01/28 11:42:29;;;;;;;0.10;0.10;;;;;;;12.25;52.71;103577.09;5042875;28;20526;-87
2022/01/28 11:44:58;;;;;;;0.10;0.10;;;;;;;11.97;51.33;103580.19;5034130;28;20489;-85
2022/01/28 11:47:35;;;;;;;8.98;2.55;;;;;;;11.93;52.43;103580.06;5039489;28;20053;-85
2022/01/28 11:50:19;;;;;;;0.10;0.10;;;;;;;12.05;52.58;103579.41;5035388;28;20025;-87
2022/01/28 11:58:12;;;;;;;0.10;0.10;;;;;;;12.12;51.91;103560.03;5021776;28;20790;-85
2022/01/28 12:00:47;;;;;;;0.40;0.40;;;;;;;12.25;52.05;103556.72;5010363;28;20030;-86
2022/01/28 12:03:18;;;;;;;0.90;0.90;;;;;;;12.34;51.89;103555.09;5014235;28;20025;-85
2022/01/28 12:08:30;;;;;;;1.75;1.65;;;;;;;12.49;52.32;103538.50;5079492;27;20398;-83
2022/01/28 12:10:57;;;;;;;0.10;0.10;;;;;;;12.32;51.64;103538.22;5065177;28;20033;-85
2022/01/28 12:13:32;;;;;;;0.10;0.10;;;;;;;12.49;51.93;103533.19;5069615;28;20542;-82
2022/01/28 12:16:04;;;;;;;0.98;0.93;;;;;;;12.49;51.66;103527.88;5052657;28;20033;-87
2022/01/28 12:18:53;;;;;;;0.10;0.10;;;;;;;12.59;50.76;103528.00;5050141;28;20061;-82
2022/01/28 12:27:13;;;;;;;0.10;0.10;;;;;;;12.32;51.73;103515.19;5085336;27;20420;-84
2022/01/28 12:29:50;;;;;;;0.10;0.10;;;;;;;12.47;51.34;103509.19;5078408;28;20111;-83
2022/01/28 12:32:25;;;;;;;0.10;0.10;;;;;;;12.54;51.11;103511.09;5083291;28;20113;-87
2022/01/28 12:34:52;;;;;;;0.10;0.10;;;;;;;12.46;50.31;103513.63;5081798;28;20041;-85
2022/01/28 12:37:22;;;;;;;0.10;0.10;;;;;;;12.59;50.89;103504.06;5077728;28;20028;-84
2022/01/28 12:39:59;;;;;;;0.00;0.00;;;;;;;12.55;50.55;103490.72;5072614;28;20392;-84
2022/01/28 12:42:27;;;;;;;0.65;0.65;;;;;;;12.46;49.71;103480.81;5075098;28;20039;-93
2022/01/28 12:44:55;;;;;;;0.10;0.10;;;;;;;12.28;50.10;103487.66;5070638;28;20032;-86
2022/01/28 12:47:23;;;;;;;0.43;0.43;;;;;;;12.12;50.24;103486.53;5076954;28;20075;-83
2022/01/28 12:50:03;;;;;;;0.10;0.10;;;;;;;12.02;50.80;103479.28;5077762;28;20055;-90
2022/01/28 12:52:31;;;;;;;0.10;0.10;;;;;;;11.83;51.67;103478.03;5080754;28;20029;-85
2022/01/28 12:54:58;;;;;;;0.10;0.10;;;;;;;11.80;51.81;103477.97;5074887;28;20727;-84
2022/01/28 12:57:24;;;;;;;0.65;0.65;;;;;;;11.68;51.85;103483.09;5077026;28;20047;-84
2022/01/28 12:59:51;;;;;;;0.10;0.10;;;;;;;11.67;52.46;103466.25;5084745;28;20037;-90
2022/01/28 13:02:19;;;;;;;0.13;0.13;;;;;;;11.61;52.81;103464.41;5073851;28;20036;-85
2022/01/28 13:04:54;;;;;;;0.10;0.10;;;;;;;11.64;52.21;103467.09;5069214;28;20182;-89
2022/01/28 13:10:09;;;;;;;0.65;0.65;;;;;;;11.97;52.15;103454.38;5069132;28;20040;-86
2022/01/28 13:12:35;;;;;;;0.10;0.10;;;;;;;12.03;51.94;103457.16;5072177;28;20052;-91
2022/01/28 13:15:17;;;;;;;0.03;0.03;;;;;;;12.28;52.01;103455.75;5072164;28;20110;-91
2022/01/28 13:18:01;;;;;;;0.20;0.20;;;;;;;12.46;52.14;103446.25;5072608;28;20029;-87
2022/01/28 13:20:39;;;;;;;0.17;0.17;;;;;;;12.65;52.04;103455.38;5071075;28;20021;-85
2022/01/28 13:23:05;;;;;;;0.10;0.10;;;;;;;12.63;49.74;103459.78;5068893;28;20468;-83